Time,TemperatureF,DewpointF,PressureIn,WindDirection,WindDirectionDegrees,WindSpeedMPH,WindSpeedGustMPH,Humidity,HourlyPrecipIn,Conditions,Clouds,dailyrainin,SoftwareType,DateUTC
2013-08-07 00:02:00,71.0,66.0,29.67,NNE,24,0.0,0.0,84,-99.99,,,-99.99,,2013-08-07 05:02:00,
2013-08-07 00:11:00,67.0,64.0,29.68,NW,326,0.0,0.0,91,-99.99,,,-99.99,,2013-08-07 05:11:00,
2013-08-07 00:22:00,66.0,64.0,29.68,NW,326,0.0,0.0,92,-99.99,,,-99.99,,2013-08-07 05:22:00,
2013-08-07 00:32:00,66.0,64.0,29.68,NW,326,0.0,0.0,92,-99.99,,,-99.99,,2013-08-07 05:32:00,
2013-08-07 00:43:00,65.0,63.0,29.69,NW,326,0.0,0.0,93,-99.99,,,-99.99,,2013-08-07 05:43:00,
2013-08-07 00:52:00,65.0,63.0,29.69,NW,326,0.0,0.0,93,-99.99,,,-99.99,,2013-08-07 05:52:00,
2013-08-07 01:02:00,65.0,63.0,29.70,NW,326,0.0,0.0,94,-99.99,,,-99.99,,2013-08-07 06:02:00,
2013-08-07 01:11:00,65.0,63.0,29.70,NW,326,0.0,0.0,94,-99.99,,,-99.99,,2013-08-07 06:11:00,
2013-08-07 01:22:00,65.0,63.0,29.70,NW,326,0.0,0.0,94,-99.99,,,-99.99,,2013-08-07 06:22:00,
2013-08-07 01:32:00,66.0,63.0,29.71,North,354,0.0,0.0,90,-99.99,,,-99.99,,2013-08-07 06:32:00,
2013-08-07 01:43:00,66.0,63.0,29.71,North,354,0.0,0.0,90,-99.99,,,-99.99,,2013-08-07 06:43:00,
2013-08-07 01:52:00,66.0,63.0,29.71,North,354,0.0,0.0,90,-99.99,,,-99.99,,2013-08-07 06:52:00,
2013-08-07 02:01:00,64.0,61.0,29.71,NNE,13,0.0,0.0,89,-99.99,,,-99.99,,2013-08-07 07:01:00,
2013-08-07 02:12:00,64.0,61.0,29.71,NNE,13,0.0,0.0,89,-99.99,,,-99.99,,2013-08-07 07:12:00,
2013-08-07 02:22:00,63.0,60.0,29.72,WNW,285,0.0,0.0,91,-99.99,,,-99.99,,2013-08-07 07:22:00,
2013-08-07 02:33:00,63.0,60.0,29.72,NNE,27,0.0,0.0,91,-99.99,,,-99.99,,2013-08-07 07:33:00,
2013-08-07 02:43:00,62.0,60.0,29.72,WNW,282,0.0,0.0,92,-99.99,,,-99.99,,2013-08-07 07:43:00,
2013-08-07 02:52:00,62.0,60.0,29.72,WNW,282,0.0,0.0,92,-99.99,,,-99.99,,2013-08-07 07:52:00,
2013-08-07 03:01:00,62.0,60.0,29.72,NNE,29,0.0,0.0,93,-99.99,,,-99.99,,2013-08-07 08:01:00,
2013-08-07 03:11:00,62.0,60.0,29.72,NNE,14,0.0,0.0,94,-99.99,,,-99.99,,2013-08-07 08:11:00,
2013-08-07 03:22:00,62.0,60.0,29.72,North,10,0.0,0.0,94,-99.99,,,-99.99,,2013-08-07 08:22:00,
2013-08-07 03:32:00,61.0,59.0,29.73,NE,35,0.0,0.0,94,-99.99,,,-99.99,,2013-08-07 08:32:00,
2013-08-07 03:44:00,61.0,59.0,29.72,ENE,57,0.0,0.0,94,-99.99,,,-99.99,,2013-08-07 08:44:00,
2013-08-07 03:52:00,61.0,60.0,29.73,NNE,32,0.0,0.0,95,-99.99,,,-99.99,,2013-08-07 08:52:00,
2013-08-07 04:02:00,61.0,60.0,29.72,North,354,0.0,0.0,95,-99.99,,,-99.99,,2013-08-07 09:02:00,
2013-08-07 04:11:00,61.0,60.0,29.72,North,7,0.0,0.0,95,-99.99,,,-99.99,,2013-08-07 09:11:00,
2013-08-07 04:22:00,61.0,60.0,29.73,NNE,17,0.0,0.0,95,-99.99,,,-99.99,,2013-08-07 09:22:00,
2013-08-07 04:32:00,61.0,60.0,29.73,NNE,17,0.0,0.0,95,-99.99,,,-99.99,,2013-08-07 09:32:00,
2013-08-07 04:43:00,61.0,60.0,29.73,NNE,17,0.0,0.0,95,-99.99,,,-99.99,,2013-08-07 09:43:00,
2013-08-07 04:54:00,61.0,60.0,29.73,NNE,17,0.0,0.0,95,-99.99,,,-99.99,,2013-08-07 09:54:00,
2013-08-07 05:01:00,61.0,60.0,29.74,NW,318,0.0,0.0,96,-99.99,,,-99.99,,2013-08-07 10:01:00,
2013-08-07 05:11:00,61.0,60.0,29.74,WNW,298,0.0,0.0,97,-99.99,,,-99.99,,2013-08-07 10:11:00,
2013-08-07 05:22:00,61.0,60.0,29.74,NNW,340,0.0,0.0,97,-99.99,,,-99.99,,2013-08-07 10:22:00,
2013-08-07 05:32:00,61.0,60.0,29.74,NNW,340,0.0,0.0,97,-99.99,,,-99.99,,2013-08-07 10:32:00,
2013-08-07 05:43:00,61.0,60.0,29.74,NNW,340,0.0,0.0,97,-99.99,,,-99.99,,2013-08-07 10:43:00,
2013-08-07 05:52:00,62.0,61.0,29.75,North,351,0.0,0.0,97,-99.99,,,-99.99,,2013-08-07 10:52:00,
2013-08-07 06:01:00,62.0,61.0,29.75,North,351,0.0,0.0,97,-99.99,,,-99.99,,2013-08-07 11:01:00,
2013-08-07 06:11:00,62.0,61.0,29.76,NNE,32,0.0,0.0,96,-99.99,,,-99.99,,2013-08-07 11:11:00,
2013-08-07 06:22:00,62.0,61.0,29.75,North,353,0.0,0.0,96,-99.99,,,-99.99,,2013-08-07 11:22:00,
2013-08-07 06:32:00,62.0,61.0,29.75,North,353,0.0,0.0,96,-99.99,,,-99.99,,2013-08-07 11:32:00,
2013-08-07 06:43:00,62.0,61.0,29.75,North,353,0.0,0.0,96,-99.99,,,-99.99,,2013-08-07 11:43:00,
2013-08-07 06:52:00,62.0,61.0,29.75,North,353,0.0,0.0,96,-99.99,,,-99.99,,2013-08-07 11:52:00,
2013-08-07 07:02:00,62.0,61.0,29.75,North,353,0.0,0.0,96,-99.99,,,-99.99,,2013-08-07 12:02:00,
2013-08-07 07:11:00,62.0,61.0,29.78,WNW,298,0.0,0.0,95,-99.99,,,-99.99,,2013-08-07 12:11:00,
2013-08-07 07:22:00,62.0,61.0,29.77,ENE,57,0.0,0.0,95,-99.99,,,-99.99,,2013-08-07 12:22:00,
2013-08-07 07:32:00,62.0,61.0,29.77,ENE,57,0.0,0.0,95,-99.99,,,-99.99,,2013-08-07 12:32:00,
2013-08-07 07:43:00,63.0,61.0,29.78,NW,309,0.0,0.0,93,-99.99,,,-99.99,,2013-08-07 12:43:00,
2013-08-07 07:52:00,63.0,61.0,29.78,NW,309,0.0,0.0,93,-99.99,,,-99.99,,2013-08-07 12:52:00,
2013-08-07 08:02:00,63.0,61.0,29.79,NW,320,0.0,0.0,93,-99.99,,,-99.99,,2013-08-07 13:02:00,
2013-08-07 08:11:00,63.0,61.0,29.79,ENE,58,0.0,0.0,93,-99.99,,,-99.99,,2013-08-07 13:11:00,
2013-08-07 08:22:00,63.0,61.0,29.80,North,10,0.0,0.0,93,-99.99,,,-99.99,,2013-08-07 13:22:00,
2013-08-07 08:32:00,63.0,61.0,29.80,NE,54,0.0,0.0,92,-99.99,,,-99.99,,2013-08-07 13:32:00,
2013-08-07 08:44:00,64.0,61.0,29.80,NE,35,0.0,0.0,91,-99.99,,,-99.99,,2013-08-07 13:44:00,
2013-08-07 09:02:00,64.0,61.0,29.81,ENE,62,0.0,0.0,89,-99.99,,,-99.99,,2013-08-07 14:02:00,
2013-08-07 09:12:00,64.0,61.0,29.81,ENE,62,0.0,0.0,89,-99.99,,,-99.99,,2013-08-07 14:12:00,
2013-08-07 09:22:00,65.0,61.0,29.82,NE,51,0.0,0.0,87,-99.99,,,-99.99,,2013-08-07 14:22:00,
2013-08-07 09:33:00,65.0,61.0,29.83,NE,41,0.0,0.0,87,-99.99,,,-99.99,,2013-08-07 14:33:00,
2013-08-07 10:02:00,66.0,61.0,29.83,NE,41,0.0,0.0,85,-99.99,,,-99.99,,2013-08-07 15:02:00,
2013-08-07 10:12:00,66.0,60.0,29.84,WNW,291,0.0,0.0,82,-99.99,,,-99.99,,2013-08-07 15:12:00,
2013-08-07 10:22:00,66.0,60.0,29.85,NE,35,0.0,0.0,81,-99.99,,,-99.99,,2013-08-07 15:22:00,
2013-08-07 10:33:00,66.0,60.0,29.85,NE,42,0.0,0.0,81,-99.99,,,-99.99,,2013-08-07 15:33:00,
2013-08-07 10:43:00,66.0,60.0,29.85,NNW,337,0.0,0.0,80,-99.99,,,-99.99,,2013-08-07 15:43:00,
2013-08-07 10:53:00,66.0,60.0,29.85,NNW,337,0.0,0.0,80,-99.99,,,-99.99,,2013-08-07 15:53:00,
2013-08-07 11:02:00,66.0,60.0,29.85,NNW,337,0.0,0.0,80,-99.99,,,-99.99,,2013-08-07 16:02:00,
2013-08-07 11:11:00,66.0,60.0,29.85,NNW,337,0.0,0.0,80,-99.99,,,-99.99,,2013-08-07 16:11:00,
2013-08-07 11:22:00,68.0,61.0,29.86,NE,55,0.0,0.0,77,-99.99,,,-99.99,,2013-08-07 16:22:00,
2013-08-07 11:33:00,68.0,61.0,29.86,NE,55,0.0,0.0,77,-99.99,,,-99.99,,2013-08-07 16:33:00,
2013-08-07 11:43:00,68.0,61.0,29.86,NE,55,0.0,0.0,77,-99.99,,,-99.99,,2013-08-07 16:43:00,
2013-08-07 11:53:00,69.0,60.0,29.88,NNE,31,0.0,0.0,74,-99.99,,,-99.99,,2013-08-07 16:53:00,
2013-08-07 12:01:00,69.0,60.0,29.88,NNE,24,0.0,0.0,72,-99.99,,,-99.99,,2013-08-07 17:01:00,
2013-08-07 12:11:00,69.0,60.0,29.88,NNE,24,0.0,0.0,72,-99.99,,,-99.99,,2013-08-07 17:11:00,
2013-08-07 12:22:00,70.0,60.0,29.88,NE,55,0.0,0.0,71,-99.99,,,-99.99,,2013-08-07 17:22:00,
2013-08-07 12:33:00,70.0,60.0,29.88,WNW,292,0.0,0.0,71,-99.99,,,-99.99,,2013-08-07 17:33:00,
2013-08-07 12:43:00,71.0,60.0,29.88,NE,56,0.0,0.0,69,-99.99,,,-99.99,,2013-08-07 17:43:00,
2013-08-07 12:52:00,71.0,59.0,29.88,NE,49,0.0,0.0,66,-99.99,,,-99.99,,2013-08-07 17:52:00,
2013-08-07 13:02:00,71.0,59.0,29.88,NE,49,0.0,0.0,66,-99.99,,,-99.99,,2013-08-07 18:02:00,
2013-08-07 13:22:00,72.0,60.0,29.87,ENE,60,0.0,0.0,66,-99.99,,,-99.99,,2013-08-07 18:22:00,
2013-08-07 13:32:00,72.0,60.0,29.87,ENE,60,0.0,0.0,66,-99.99,,,-99.99,,2013-08-07 18:32:00,
2013-08-07 13:43:00,73.0,59.0,29.87,NNE,28,0.0,0.0,62,-99.99,,,-99.99,,2013-08-07 18:43:00,
2013-08-07 13:52:00,73.0,59.0,29.87,NNE,28,0.0,0.0,62,-99.99,,,-99.99,,2013-08-07 18:52:00,
2013-08-07 14:01:00,73.0,58.0,29.87,North,11,0.0,0.0,60,-99.99,,,-99.99,,2013-08-07 19:01:00,
2013-08-07 14:11:00,73.0,58.0,29.86,NE,56,0.0,0.0,59,-99.99,,,-99.99,,2013-08-07 19:11:00,
2013-08-07 14:22:00,73.0,58.0,29.86,NE,56,0.0,0.0,59,-99.99,,,-99.99,,2013-08-07 19:22:00,
2013-08-07 14:32:00,74.0,58.0,29.87,NNW,330,0.0,0.0,58,-99.99,,,-99.99,,2013-08-07 19:32:00,
2013-08-07 14:44:00,74.0,58.0,29.87,North,1,0.0,0.0,57,-99.99,,,-99.99,,2013-08-07 19:44:00,
2013-08-07 14:52:00,74.0,58.0,29.87,North,1,0.0,0.0,57,-99.99,,,-99.99,,2013-08-07 19:52:00,
2013-08-07 15:02:00,75.0,59.0,29.86,NW,306,0.0,0.0,58,-99.99,,,-99.99,,2013-08-07 20:02:00,
2013-08-07 15:11:00,75.0,59.0,29.86,NW,306,0.0,0.0,58,-99.99,,,-99.99,,2013-08-07 20:11:00,
2013-08-07 15:22:00,75.0,59.0,29.86,ENE,59,0.0,0.0,57,-99.99,,,-99.99,,2013-08-07 20:22:00,
2013-08-07 15:32:00,75.0,60.0,29.86,NE,46,0.0,0.0,59,-99.99,,,-99.99,,2013-08-07 20:32:00,
2013-08-07 15:43:00,74.0,57.0,29.86,NE,52,0.0,0.0,56,-99.99,,,-99.99,,2013-08-07 20:43:00,
2013-08-07 15:52:00,74.0,58.0,29.86,NNE,28,0.0,0.0,57,-99.99,,,-99.99,,2013-08-07 20:52:00,
2013-08-07 16:01:00,74.0,58.0,29.86,NNE,28,0.0,0.0,57,-99.99,,,-99.99,,2013-08-07 21:01:00,
2013-08-07 16:11:00,74.0,58.0,29.86,NNE,28,0.0,0.0,57,-99.99,,,-99.99,,2013-08-07 21:11:00,
2013-08-07 16:22:00,74.0,58.0,29.86,NNE,28,0.0,0.0,57,-99.99,,,-99.99,,2013-08-07 21:22:00,
2013-08-07 16:32:00,74.0,58.0,29.86,NNE,28,0.0,0.0,57,-99.99,,,-99.99,,2013-08-07 21:32:00,
2013-08-07 16:52:00,75.0,57.0,29.86,WSW,248,0.0,0.0,54,-99.99,,,-99.99,,2013-08-07 21:52:00,
2013-08-07 17:01:00,75.0,57.0,29.86,WSW,248,0.0,0.0,54,-99.99,,,-99.99,,2013-08-07 22:01:00,
2013-08-07 17:12:00,75.0,56.0,29.87,NNE,32,0.0,0.0,52,-99.99,,,-99.99,,2013-08-07 22:12:00,
2013-08-07 17:22:00,74.0,56.0,29.86,ENE,65,0.0,0.0,54,-99.99,,,-99.99,,2013-08-07 22:22:00,
2013-08-07 17:32:00,74.0,56.0,29.87,NE,51,0.0,0.0,54,-99.99,,,-99.99,,2013-08-07 22:32:00,
2013-08-07 17:43:00,75.0,56.0,29.87,NW,321,0.0,0.0,52,-99.99,,,-99.99,,2013-08-07 22:43:00,
2013-08-07 17:52:00,75.0,56.0,29.87,NW,321,0.0,0.0,52,-99.99,,,-99.99,,2013-08-07 22:52:00,
2013-08-07 18:01:00,75.0,56.0,29.87,NW,321,0.0,0.0,52,-99.99,,,-99.99,,2013-08-07 23:01:00,
2013-08-07 18:11:00,74.0,56.0,29.87,NE,47,0.0,0.0,53,-99.99,,,-99.99,,2013-08-07 23:11:00,
2013-08-07 18:22:00,74.0,53.0,29.86,ENE,63,0.0,0.0,48,-99.99,,,-99.99,,2013-08-07 23:22:00,
2013-08-07 18:32:00,73.0,53.0,29.86,East,80,0.0,0.0,50,-99.99,,,-99.99,,2013-08-07 23:32:00,
2013-08-07 18:43:00,74.0,54.0,29.86,NE,37,0.0,0.0,50,-99.99,,,-99.99,,2013-08-07 23:43:00,
2013-08-07 18:52:00,74.0,54.0,29.86,NE,37,0.0,0.0,50,-99.99,,,-99.99,,2013-08-07 23:52:00,
2013-08-07 19:01:00,73.0,54.0,29.86,NE,51,0.0,0.0,51,-99.99,,,-99.99,,2013-08-08 00:01:00,
2013-08-07 19:22:00,73.0,54.0,29.86,NE,51,0.0,0.0,51,-99.99,,,-99.99,,2013-08-08 00:22:00,
2013-08-07 19:42:00,75.0,57.0,29.87,NNW,338,0.0,0.0,54,-99.99,,,-99.99,,2013-08-08 00:42:00,
2013-08-07 20:02:00,75.0,58.0,29.87,NNW,342,0.0,0.0,56,-99.99,,,-99.99,,2013-08-08 01:02:00,
2013-08-07 20:22:00,75.0,59.0,29.88,NNW,347,0.0,0.0,58,-99.99,,,-99.99,,2013-08-08 01:22:00,
2013-08-07 20:32:00,74.0,59.0,29.88,NNW,346,0.0,0.0,60,-99.99,,,-99.99,,2013-08-08 01:32:00,
2013-08-07 20:43:00,74.0,59.0,29.88,NNW,346,0.0,0.0,60,-99.99,,,-99.99,,2013-08-08 01:43:00,
2013-08-07 20:52:00,74.0,59.0,29.88,NNW,346,0.0,0.0,60,-99.99,,,-99.99,,2013-08-08 01:52:00,
2013-08-07 21:02:00,74.0,59.0,29.88,NNW,346,0.0,0.0,60,-99.99,,,-99.99,,2013-08-08 02:02:00,
2013-08-07 21:32:00,63.0,58.0,29.90,NNW,346,0.0,0.0,84,-99.99,,,-99.99,,2013-08-08 02:32:00,
2013-08-07 21:43:00,62.0,58.0,29.91,NNW,346,0.0,0.0,86,-99.99,,,-99.99,,2013-08-08 02:43:00,
2013-08-07 21:52:00,62.0,57.0,29.91,NNW,346,0.0,0.0,85,-99.99,,,-99.99,,2013-08-08 02:52:00,
2013-08-07 22:01:00,62.0,57.0,29.91,NNW,346,0.0,0.0,85,-99.99,,,-99.99,,2013-08-08 03:01:00,
2013-08-07 22:12:00,62.0,57.0,29.91,NNW,346,0.0,0.0,85,-99.99,,,-99.99,,2013-08-08 03:12:00,
2013-08-07 22:22:00,61.0,56.0,29.92,NNW,346,0.0,0.0,84,-99.99,,,-99.99,,2013-08-08 03:22:00,
2013-08-07 22:32:00,61.0,56.0,29.92,NNW,346,0.0,0.0,84,-99.99,,,-99.99,,2013-08-08 03:32:00,
2013-08-07 22:43:00,61.0,56.0,29.92,NNW,346,0.0,0.0,84,-99.99,,,-99.99,,2013-08-08 03:43:00,
2013-08-07 22:52:00,61.0,56.0,29.92,NNW,346,0.0,0.0,84,-99.99,,,-99.99,,2013-08-08 03:52:00,
2013-08-07 23:01:00,60.0,55.0,29.92,ENE,57,0.0,0.0,85,-99.99,,,-99.99,,2013-08-08 04:01:00,
2013-08-07 23:11:00,60.0,56.0,29.92,East,94,0.0,0.0,86,-99.99,,,-99.99,,2013-08-08 04:11:00,
2013-08-07 23:22:00,60.0,56.0,29.92,East,94,0.0,0.0,86,-99.99,,,-99.99,,2013-08-08 04:22:00,
2013-08-07 23:33:00,60.0,56.0,29.92,East,94,0.0,0.0,86,-99.99,,,-99.99,,2013-08-08 04:33:00,
2013-08-07 23:43:00,60.0,56.0,29.92,East,94,0.0,0.0,86,-99.99,,,-99.99,,2013-08-08 04:43:00,